createdAt,value
2023-04-01T00:00:44.994Z,10.34
2023-04-01T00:01:44.966Z,10.40
2023-04-01T00:02:45.070Z,10.38
2023-04-01T00:03:45.083Z,10.33
2023-04-01T00:04:44.952Z,10.42
2023-04-01T00:05:44.915Z,10.41
2023-04-01T00:06:44.951Z,10.41
2023-04-01T00:07:44.906Z,10.35
2023-04-01T00:08:44.886Z,10.42
2023-04-01T00:09:44.888Z,10.34
2023-04-01T00:10:44.873Z,10.41
2023-04-01T00:11:44.849Z,10.42
2023-04-01T00:12:44.844Z,10.34
2023-04-01T00:13:44.839Z,10.41
2023-04-01T00:14:44.821Z,10.38
2023-04-01T00:15:44.847Z,10.42
2023-04-01T00:16:44.873Z,10.38
2023-04-01T00:17:44.821Z,10.33
2023-04-01T00:18:44.778Z,10.38
2023-04-01T00:19:44.783Z,10.37
2023-04-01T00:20:44.766Z,10.37
2023-04-01T00:21:44.749Z,10.34
2023-04-01T00:22:44.733Z,10.37
2023-04-01T00:23:44.936Z,10.38
2023-04-01T00:24:44.714Z,10.40
2023-04-01T00:25:44.726Z,10.38
2023-04-01T00:26:44.682Z,10.35
2023-04-01T00:27:44.670Z,10.41
2023-04-01T00:28:44.668Z,10.42
2023-04-01T00:29:44.651Z,10.37
2023-04-01T00:30:44.688Z,10.40
2023-04-01T00:31:44.700Z,10.44
2023-04-01T00:32:44.731Z,10.38
2023-04-01T00:33:44.614Z,10.40
2023-04-01T00:34:44.600Z,10.38
2023-04-01T00:35:44.619Z,10.38
2023-04-01T00:36:44.589Z,10.40
2023-04-01T00:37:44.563Z,10.37
2023-04-01T00:38:44.557Z,10.37
2023-04-01T00:39:44.551Z,10.40
2023-04-01T00:40:44.545Z,10.34
2023-04-01T00:41:44.540Z,10.34
2023-04-01T00:42:44.505Z,10.35
2023-04-01T00:43:44.568Z,10.33
2023-04-01T00:44:44.484Z,10.33
2023-04-01T00:45:44.484Z,10.34
2023-04-01T00:46:44.547Z,10.34
2023-04-01T00:47:44.514Z,10.33
2023-04-01T00:48:44.464Z,10.42
2023-04-01T00:49:44.431Z,10.38
2023-04-01T00:50:44.416Z,10.35
2023-04-01T00:51:44.417Z,10.35
2023-04-01T00:52:44.405Z,10.31
2023-04-01T00:53:44.398Z,10.33
2023-04-01T00:54:44.381Z,10.35
2023-04-01T00:55:44.366Z,10.31
2023-04-01T00:56:44.394Z,10.20
2023-04-01T00:57:44.345Z,10.25
2023-04-01T00:58:44.336Z,10.28
2023-04-01T00:59:44.321Z,10.31
2023-04-01T01:00:44.351Z,10.34
2023-04-01T01:01:44.339Z,10.34
2023-04-01T01:02:44.371Z,10.35
2023-04-01T01:03:44.282Z,10.26
2023-04-01T01:04:44.282Z,10.33
2023-04-01T01:05:49.586Z,10.31
2023-04-01T01:06:45.251Z,10.28
2023-04-01T01:07:44.247Z,10.33
2023-04-01T01:08:44.213Z,10.23
2023-04-01T01:09:44.212Z,10.30
2023-04-01T01:10:44.201Z,10.25
2023-04-01T01:11:44.287Z,10.28
2023-04-01T01:12:44.171Z,10.30
2023-04-01T01:13:44.169Z,10.31
2023-04-01T01:14:44.145Z,10.31
2023-04-01T01:15:44.141Z,10.34
2023-04-01T01:16:44.229Z,10.23
2023-04-01T01:17:44.190Z,10.20
2023-04-01T01:18:44.103Z,10.20
2023-04-01T01:19:44.107Z,10.16
2023-04-01T01:20:44.111Z,10.28
2023-04-01T01:21:44.076Z,10.28
2023-04-01T01:22:44.063Z,10.22
2023-04-01T01:23:44.058Z,10.30
2023-04-01T01:24:44.037Z,10.20
2023-04-01T01:25:44.028Z,10.25
2023-04-01T01:26:44.011Z,10.22
2023-04-01T01:27:44.022Z,10.25
2023-04-01T01:28:43.996Z,10.28
2023-04-01T01:29:43.987Z,10.30
2023-04-01T01:30:44.015Z,10.23
2023-04-01T01:31:43.961Z,10.25
2023-04-01T01:32:44.012Z,10.19
2023-04-01T01:33:43.973Z,10.22
2023-04-01T01:34:43.928Z,10.28
2023-04-01T01:35:43.931Z,10.33
2023-04-01T01:36:43.925Z,10.16
2023-04-01T01:37:43.897Z,10.20
2023-04-01T01:38:43.898Z,10.28
2023-04-01T01:39:43.874Z,10.33
2023-04-01T01:40:43.868Z,10.28
2023-04-01T01:41:43.848Z,10.17
2023-04-01T01:42:43.830Z,10.19
2023-04-01T01:43:43.843Z,10.13
2023-04-01T01:44:43.810Z,10.20
2023-04-01T01:45:43.835Z,10.22
2023-04-01T01:46:43.799Z,10.20
2023-04-01T01:47:43.818Z,10.25
2023-04-01T01:48:43.781Z,10.17
2023-04-01T01:49:43.773Z,10.23
2023-04-01T01:50:43.755Z,10.13
2023-04-01T01:51:43.736Z,10.17
2023-04-01T01:52:43.738Z,10.19
2023-04-01T01:53:43.711Z,10.19
2023-04-01T01:54:43.713Z,10.20
2023-04-01T01:55:43.689Z,10.17
2023-04-01T01:56:43.679Z,10.16
2023-04-01T01:57:43.668Z,10.17
2023-04-01T01:58:43.680Z,10.15
2023-04-01T01:59:43.650Z,10.22
2023-04-01T02:00:43.623Z,10.20
2023-04-01T02:01:43.644Z,10.15
2023-04-01T02:02:43.738Z,10.12
2023-04-01T02:03:43.606Z,10.10
2023-04-01T02:04:43.641Z,10.17
2023-04-01T02:05:43.581Z,10.17
2023-04-01T02:06:43.595Z,10.15
2023-04-01T02:07:43.580Z,10.16
2023-04-01T02:08:46.338Z,10.07
2023-04-01T02:09:43.524Z,10.10
2023-04-01T02:10:43.521Z,10.15
2023-04-01T02:11:43.614Z,10.10
2023-04-01T02:12:43.510Z,10.15
2023-04-01T02:13:43.484Z,10.16
2023-04-01T02:14:43.472Z,10.05
2023-04-01T02:15:43.484Z,10.12
2023-04-01T02:16:43.446Z,10.04
2023-04-01T02:17:43.498Z,10.09
2023-04-01T02:18:43.441Z,10.09
2023-04-01T02:19:43.422Z,10.07
2023-04-01T02:20:43.418Z,10.10
2023-04-01T02:21:43.391Z,10.07
2023-04-01T02:22:43.386Z,10.10
2023-04-01T02:23:43.394Z,10.15
2023-04-01T02:24:43.379Z,10.09
2023-04-01T02:25:43.361Z,10.09
2023-04-01T02:26:43.333Z,10.15
2023-04-01T02:27:43.326Z,10.12
2023-04-01T02:28:43.328Z,10.12
2023-04-01T02:29:43.332Z,10.02
2023-04-01T02:30:43.309Z,10.05
2023-04-01T02:31:43.308Z,10.13
2023-04-01T02:32:43.292Z,10.04
2023-04-01T02:33:43.253Z,10.04
2023-04-01T02:34:43.257Z,10.02
2023-04-01T02:35:43.260Z,10.12
2023-04-01T02:36:43.234Z,10.04
2023-04-01T02:37:43.247Z,10.17
2023-04-01T02:38:43.208Z,10.07
2023-04-01T02:39:43.213Z,10.07
2023-04-01T02:40:43.209Z,10.12
2023-04-01T02:41:43.172Z,10.07
2023-04-01T02:42:43.170Z,10.07
2023-04-01T02:43:43.156Z,10.10
2023-04-01T02:44:43.138Z,10.09
2023-04-01T02:45:43.145Z,10.04
2023-04-01T02:46:43.144Z,10.04
2023-04-01T02:47:43.140Z,10.07
2023-04-01T02:48:43.100Z,10.15
2023-04-01T02:49:43.105Z,10.15
2023-04-01T02:50:43.072Z,10.05
2023-04-01T02:51:43.055Z,9.97
2023-04-01T02:52:43.053Z,10.04
2023-04-01T02:53:43.032Z,10.01
2023-04-01T02:54:43.039Z,10.05
2023-04-01T02:55:43.022Z,9.99
2023-04-01T02:56:43.024Z,10.02
2023-04-01T02:57:42.993Z,9.99
2023-04-01T02:58:42.996Z,9.99
2023-04-01T02:59:42.969Z,10.04
2023-04-01T03:00:43.032Z,9.99
2023-04-01T03:01:42.956Z,10.07
2023-04-01T03:02:43.046Z,10.13
2023-04-01T03:03:42.923Z,10.15
2023-04-01T03:04:42.919Z,10.09
2023-04-01T03:05:42.906Z,10.07
2023-04-01T03:06:42.891Z,10.09
2023-04-01T03:07:42.887Z,10.04
2023-04-01T03:08:42.870Z,10.12
2023-04-01T03:09:42.868Z,10.05
2023-04-01T03:10:42.851Z,10.12
2023-04-01T03:11:42.834Z,10.05
2023-04-01T03:12:42.843Z,10.07
2023-04-01T03:13:42.821Z,10.12
2023-04-01T03:14:42.795Z,10.09
2023-04-01T03:15:42.812Z,10.09
2023-04-01T03:16:42.840Z,10.01
2023-04-01T03:17:42.832Z,10.05
2023-04-01T03:18:42.751Z,10.04
2023-04-01T03:19:42.743Z,10.09
2023-04-01T03:20:42.736Z,10.02
2023-04-01T03:21:42.744Z,10.10
2023-04-01T03:22:43.160Z,10.10
2023-04-01T03:23:42.696Z,10.13
2023-04-01T03:24:42.693Z,10.09
2023-04-01T03:25:42.679Z,10.15
2023-04-01T03:26:42.673Z,10.05
2023-04-01T03:27:42.669Z,10.12
2023-04-01T03:28:42.663Z,10.20
2023-04-01T03:29:42.633Z,10.05
2023-04-01T03:30:42.725Z,10.09
2023-04-01T03:31:42.607Z,10.10
2023-04-01T03:32:42.639Z,10.10
2023-04-01T03:33:42.607Z,10.15
2023-04-01T03:34:42.572Z,10.16
2023-04-01T03:35:42.569Z,10.09
2023-04-01T03:36:42.618Z,10.04
2023-04-01T03:37:42.538Z,10.07
2023-04-01T03:38:42.538Z,10.07
2023-04-01T03:39:43.481Z,10.01
2023-04-01T03:40:42.519Z,10.10
2023-04-01T03:41:42.505Z,10.04
2023-04-01T03:42:42.523Z,10.16
2023-04-01T03:43:42.476Z,10.09
2023-04-01T03:44:42.480Z,10.13
2023-04-01T03:45:42.444Z,10.02
2023-04-01T03:46:42.466Z,10.07
2023-04-01T03:47:42.448Z,10.07
2023-04-01T03:48:42.416Z,10.07
2023-04-01T03:49:42.406Z,10.02
2023-04-01T03:50:42.381Z,10.15
2023-04-01T03:51:42.387Z,10.13
2023-04-01T03:52:42.370Z,10.07
2023-04-01T03:53:42.364Z,10.07
2023-04-01T03:54:42.365Z,10.10
2023-04-01T03:55:42.331Z,10.17
2023-04-01T03:56:42.319Z,10.13
2023-04-01T03:57:42.312Z,10.19
2023-04-01T03:58:42.306Z,10.13
2023-04-01T03:59:42.299Z,10.17
2023-04-01T04:00:42.317Z,10.16
2023-04-01T04:01:42.267Z,10.20
2023-04-01T04:02:42.377Z,10.15
2023-04-01T04:03:42.319Z,10.19
2023-04-01T04:04:42.349Z,10.13
2023-04-01T04:05:42.225Z,10.20
2023-04-01T04:06:42.204Z,10.07
2023-04-01T04:07:42.205Z,10.10
2023-04-01T04:08:42.202Z,10.12
2023-04-01T04:09:42.174Z,10.10
2023-04-01T04:10:42.181Z,10.20
2023-04-01T04:11:42.154Z,10.16
2023-04-01T04:12:42.137Z,10.12
2023-04-01T04:13:42.142Z,10.12
2023-04-01T04:14:42.119Z,10.13
2023-04-01T04:15:42.127Z,10.13
2023-04-01T04:16:42.148Z,10.17
2023-04-01T04:17:42.187Z,10.16
2023-04-01T04:18:42.076Z,10.23
2023-04-01T04:19:42.064Z,10.07
2023-04-01T04:20:42.070Z,10.13
2023-04-01T04:21:42.082Z,10.10
2023-04-01T04:22:42.063Z,10.15
2023-04-01T04:23:42.025Z,10.23
2023-04-01T04:24:42.005Z,10.19
2023-04-01T04:25:42.005Z,10.16
2023-04-01T04:26:42.015Z,10.13
2023-04-01T04:27:41.982Z,10.17
2023-04-01T04:28:41.969Z,10.19
2023-04-01T04:29:41.969Z,10.20
2023-04-01T04:30:41.937Z,10.19
2023-04-01T04:31:41.962Z,10.23
2023-04-01T04:32:41.977Z,10.13
2023-04-01T04:33:41.911Z,10.22
2023-04-01T04:34:41.893Z,10.20
2023-04-01T04:35:41.890Z,10.17
2023-04-01T04:36:41.872Z,10.13
2023-04-01T04:37:41.888Z,10.23
2023-04-01T04:38:41.845Z,10.23
2023-04-01T04:39:41.844Z,10.17
2023-04-01T04:40:41.836Z,10.16
2023-04-01T04:41:41.815Z,10.07
2023-04-01T04:42:41.801Z,10.19
2023-04-01T04:43:41.814Z,10.22
2023-04-01T04:44:41.775Z,10.16
2023-04-01T04:45:41.780Z,10.04
2023-04-01T04:46:41.785Z,10.05
2023-04-01T04:47:41.776Z,10.15
2023-04-01T04:48:41.769Z,10.09
2023-04-01T04:49:41.745Z,10.15
2023-04-01T04:50:41.721Z,10.16
2023-04-01T04:51:41.712Z,10.05
2023-04-01T04:52:41.690Z,10.10
2023-04-01T04:53:41.695Z,10.02
2023-04-01T04:54:41.687Z,10.02
2023-04-01T04:55:41.656Z,10.05
2023-04-01T04:56:41.643Z,10.10
2023-04-01T04:57:41.637Z,10.13
2023-04-01T04:58:41.656Z,10.16
2023-04-01T04:59:41.616Z,10.15
2023-04-01T05:00:41.624Z,10.16
2023-04-01T05:01:41.755Z,10.19
2023-04-01T05:02:41.657Z,10.20
2023-04-01T05:03:41.654Z,10.15
2023-04-01T05:04:41.611Z,10.19
2023-04-01T05:05:41.552Z,10.17
2023-04-01T05:06:41.551Z,10.19
2023-04-01T05:07:41.519Z,10.16
2023-04-01T05:08:41.535Z,10.20
2023-04-01T05:09:41.496Z,10.16
2023-04-01T05:10:41.497Z,10.13
2023-04-01T05:11:41.482Z,10.12
2023-04-01T05:12:41.493Z,10.19
2023-04-01T05:13:41.450Z,10.17
2023-04-01T05:14:41.453Z,10.02
2023-04-01T05:15:41.437Z,10.09
2023-04-01T05:16:41.488Z,10.13
2023-04-01T05:17:41.435Z,10.20
2023-04-01T05:18:41.402Z,10.17
2023-04-01T05:19:41.395Z,10.16
2023-04-01T05:20:41.395Z,10.17
2023-04-01T05:21:41.362Z,10.17
2023-04-01T05:22:41.414Z,10.20
2023-04-01T05:23:41.357Z,10.10
2023-04-01T05:24:41.331Z,10.19
2023-04-01T05:25:41.332Z,10.12
2023-04-01T05:26:41.311Z,10.16
2023-04-01T05:27:41.292Z,10.17
2023-04-01T05:28:41.289Z,10.20
2023-04-01T05:29:41.284Z,10.16
2023-04-01T05:30:41.309Z,10.16
2023-04-01T05:31:41.261Z,10.13
2023-04-01T05:32:41.270Z,10.22
2023-04-01T05:33:41.225Z,10.17
2023-04-01T05:34:41.217Z,10.19
2023-04-01T05:35:41.242Z,10.20
2023-04-01T05:36:41.312Z,10.16
2023-04-01T05:37:41.186Z,10.17
2023-04-01T05:38:41.177Z,10.16
2023-04-01T05:39:41.161Z,10.09
2023-04-01T05:40:41.164Z,10.12
2023-04-01T05:41:41.164Z,10.12
2023-04-01T05:42:41.145Z,10.20
2023-04-01T05:43:41.123Z,10.23
2023-04-01T05:44:41.107Z,10.15
2023-04-01T05:45:41.104Z,10.16
2023-04-01T05:46:41.158Z,10.15
2023-04-01T05:47:41.091Z,10.17
2023-04-01T05:48:41.072Z,10.16
2023-04-01T05:49:41.090Z,10.15
2023-04-01T05:50:41.073Z,10.04
2023-04-01T05:51:48.173Z,10.19
2023-04-01T05:52:41.016Z,10.13
2023-04-01T05:53:41.003Z,10.20
2023-04-01T05:54:41.005Z,10.15
2023-04-01T05:55:41.009Z,10.15
2023-04-01T05:56:40.979Z,10.25
2023-04-01T05:57:41.045Z,10.23
2023-04-01T05:58:40.969Z,10.16
2023-04-01T05:59:40.941Z,10.25
2023-04-01T06:00:40.929Z,10.25
2023-04-01T06:01:40.925Z,10.19
2023-04-01T06:02:41.045Z,10.20
2023-04-01T06:03:41.079Z,10.25
2023-04-01T06:04:40.929Z,10.25
2023-04-01T06:05:40.883Z,10.25
2023-04-01T06:06:40.860Z,10.22
2023-04-01T06:07:40.888Z,10.26
2023-04-01T06:08:40.840Z,10.23
2023-04-01T06:09:40.819Z,10.20
2023-04-01T06:10:40.816Z,10.22
2023-04-01T06:11:40.809Z,10.15
2023-04-01T06:12:40.815Z,10.31
2023-04-01T06:13:40.785Z,10.22
2023-04-01T06:14:40.782Z,10.25
2023-04-01T06:15:40.778Z,10.33
2023-04-01T06:16:40.918Z,10.34
2023-04-01T06:17:40.745Z,10.37
2023-04-01T06:18:40.758Z,10.35
2023-04-01T06:19:40.709Z,10.35
2023-04-01T06:20:40.701Z,10.41
2023-04-01T06:21:40.703Z,10.33
2023-04-01T06:22:40.711Z,10.30
2023-04-01T06:23:40.701Z,10.41
2023-04-01T06:24:40.704Z,10.37
2023-04-01T06:25:40.653Z,10.35
2023-04-01T06:26:40.684Z,10.33
2023-04-01T06:27:40.645Z,10.33
2023-04-01T06:28:40.612Z,10.38
2023-04-01T06:29:40.635Z,10.33
2023-04-01T06:30:40.603Z,10.30
2023-04-01T06:31:40.913Z,10.33
2023-04-01T06:32:40.590Z,10.28
2023-04-01T06:33:40.577Z,10.35
2023-04-01T06:34:40.575Z,10.33
2023-04-01T06:35:40.622Z,10.38
2023-04-01T06:36:40.562Z,10.41
2023-04-01T06:37:40.536Z,10.38
2023-04-01T06:38:40.502Z,10.41
2023-04-01T06:39:40.517Z,10.40
2023-04-01T06:40:40.520Z,10.44
2023-04-01T06:41:40.474Z,10.48
2023-04-01T06:42:40.475Z,10.51
2023-04-01T06:43:40.453Z,10.51
2023-04-01T06:44:40.440Z,10.44
2023-04-01T06:45:40.465Z,10.46
2023-04-01T06:46:40.418Z,10.40
2023-04-01T06:47:41.002Z,10.42
2023-04-01T06:48:40.407Z,10.41
2023-04-01T06:49:40.378Z,10.51
2023-04-01T06:50:40.370Z,10.54
2023-04-01T06:51:40.376Z,10.54
2023-04-01T06:52:40.349Z,10.54
2023-04-01T06:53:40.349Z,10.68
2023-04-01T06:54:40.325Z,10.53
2023-04-01T06:55:40.333Z,10.49
2023-04-01T06:56:40.316Z,10.54
2023-04-01T06:57:40.285Z,10.48
2023-04-01T06:58:40.285Z,10.54
2023-04-01T06:59:40.261Z,10.56
2023-04-01T07:00:40.285Z,10.59
2023-04-01T07:01:40.325Z,10.68
2023-04-01T07:02:40.262Z,10.61
2023-04-01T07:03:40.215Z,10.63
2023-04-01T07:04:40.250Z,10.72
2023-04-01T07:05:40.215Z,10.64
2023-04-01T07:06:40.184Z,10.60
2023-04-01T07:07:40.177Z,10.56
2023-04-01T07:08:40.178Z,10.53
2023-04-01T07:09:40.227Z,10.56
2023-04-01T07:10:40.144Z,10.67
2023-04-01T07:11:40.155Z,10.63
2023-04-01T07:12:40.132Z,10.61
2023-04-01T07:13:40.119Z,10.63
2023-04-01T07:14:40.105Z,10.67
2023-04-01T07:15:40.080Z,10.63
2023-04-01T07:16:40.130Z,10.60
2023-04-01T07:17:40.137Z,10.61
2023-04-01T07:18:40.066Z,10.76
2023-04-01T07:19:40.053Z,10.60
2023-04-01T07:20:40.056Z,10.72
2023-04-01T07:21:40.018Z,10.74
2023-04-01T07:22:40.015Z,10.68
2023-04-01T07:23:39.999Z,10.76
2023-04-01T07:24:40.018Z,10.84
2023-04-01T07:25:39.977Z,10.76
2023-04-01T07:26:39.970Z,10.79
2023-04-01T07:27:39.965Z,10.74
2023-04-01T07:28:39.941Z,10.79
2023-04-01T07:29:39.934Z,10.79
2023-04-01T07:30:39.927Z,10.81
2023-04-01T07:31:39.900Z,10.76
2023-04-01T07:32:39.934Z,10.79
2023-04-01T07:33:39.880Z,10.78
2023-04-01T07:34:39.884Z,10.79
2023-04-01T07:35:39.910Z,10.87
2023-04-01T07:36:39.863Z,10.96
2023-04-01T07:37:39.851Z,10.94
2023-04-01T07:38:39.890Z,10.92
2023-04-01T07:39:39.832Z,11.00
2023-04-01T07:40:39.820Z,10.92
2023-04-01T07:41:39.786Z,10.96
2023-04-01T07:42:39.783Z,10.99
2023-04-01T07:43:39.783Z,11.00
2023-04-01T07:44:39.767Z,10.96
2023-04-01T07:45:39.765Z,11.05
2023-04-01T07:46:39.815Z,11.10
2023-04-01T07:47:39.806Z,11.00
2023-04-01T07:48:39.713Z,10.89
2023-04-01T07:49:39.700Z,10.89
2023-04-01T07:50:39.710Z,11.00
2023-04-01T07:51:39.703Z,10.87
2023-04-01T07:52:39.679Z,10.92
2023-04-01T07:53:39.657Z,10.94
2023-04-01T07:54:39.646Z,11.11
2023-04-01T07:55:39.640Z,10.96
2023-04-01T07:56:39.636Z,10.97
2023-04-01T07:57:39.614Z,10.94
2023-04-01T07:58:39.599Z,11.07
2023-04-01T07:59:39.614Z,11.05
2023-04-01T08:00:39.589Z,11.00
2023-04-01T08:01:39.576Z,11.10
2023-04-01T08:02:39.648Z,10.97
2023-04-01T08:03:39.688Z,11.10
2023-04-01T08:04:39.578Z,11.12
2023-04-01T08:05:39.519Z,11.10
2023-04-01T08:06:39.508Z,11.11
2023-04-01T08:07:39.511Z,11.00
2023-04-01T08:08:39.486Z,11.00
2023-04-01T08:09:39.477Z,11.04
2023-04-01T08:10:39.492Z,11.07
2023-04-01T08:11:41.231Z,11.10
2023-04-01T08:12:39.492Z,11.04
2023-04-01T08:13:39.436Z,11.02
2023-04-01T08:14:39.427Z,11.10
2023-04-01T08:15:39.436Z,11.23
2023-04-01T08:16:39.604Z,11.25
2023-04-01T08:17:39.414Z,11.32
2023-04-01T08:18:39.393Z,11.17
2023-04-01T08:19:39.363Z,11.22
2023-04-01T08:20:39.348Z,11.22
2023-04-01T08:21:39.340Z,11.19
2023-04-01T08:22:39.331Z,11.43
2023-04-01T08:23:39.315Z,11.35
2023-04-01T08:24:47.184Z,11.45
2023-04-01T08:25:40.304Z,11.45
2023-04-01T08:26:39.276Z,11.51
2023-04-01T08:27:39.289Z,11.41
2023-04-01T08:28:39.257Z,11.50
2023-04-01T08:29:39.261Z,11.44
2023-04-01T08:30:39.232Z,11.35
2023-04-01T08:31:39.365Z,11.40
2023-04-01T08:32:39.229Z,11.29
2023-04-01T08:33:39.213Z,11.30
2023-04-01T08:34:39.193Z,11.19
2023-04-01T08:35:39.730Z,11.30
2023-04-01T08:36:39.172Z,11.35
2023-04-01T08:37:39.174Z,11.45
2023-04-01T08:38:39.166Z,11.37
2023-04-01T08:39:39.128Z,11.47
2023-04-01T08:40:39.128Z,11.47
2023-04-01T08:41:39.107Z,11.54
2023-04-01T08:42:39.121Z,11.51
2023-04-01T08:43:39.086Z,11.57
2023-04-01T08:44:39.081Z,11.51
2023-04-01T08:45:39.133Z,11.50
2023-04-01T08:46:39.062Z,11.50
2023-04-01T08:47:39.105Z,11.52
2023-04-01T08:48:39.030Z,11.60
2023-04-01T08:49:39.015Z,11.66
2023-04-01T08:50:39.048Z,11.66
2023-04-01T08:51:39.016Z,11.69
2023-04-01T08:52:38.984Z,11.62
2023-04-01T08:53:38.983Z,11.59
2023-04-01T08:54:38.979Z,11.48
2023-04-01T08:55:38.955Z,11.50
2023-04-01T08:56:38.941Z,11.45
2023-04-01T08:57:38.934Z,11.47
2023-04-01T08:58:38.928Z,11.43
2023-04-01T08:59:38.906Z,11.37
2023-04-01T09:00:38.902Z,11.36
2023-04-01T09:01:38.888Z,11.50
2023-04-01T09:02:38.981Z,11.40
2023-04-01T09:03:39.049Z,11.51
2023-04-01T09:04:38.897Z,11.48
2023-04-01T09:05:38.863Z,11.63
2023-04-01T09:06:38.860Z,11.68
2023-04-01T09:07:38.826Z,11.66
2023-04-01T09:08:38.808Z,11.77
2023-04-01T09:09:38.830Z,11.75
2023-04-01T09:10:38.797Z,11.75
2023-04-01T09:11:38.794Z,11.73
2023-04-01T09:12:38.761Z,11.80
2023-04-01T09:13:38.756Z,11.83
2023-04-01T09:14:38.751Z,11.84
2023-04-01T09:15:38.760Z,11.83
2023-04-01T09:16:38.721Z,11.88
2023-04-01T09:17:38.731Z,11.81
2023-04-01T09:18:38.698Z,11.78
2023-04-01T09:19:38.702Z,11.84
2023-04-01T09:20:38.687Z,11.69
2023-04-01T09:21:38.678Z,11.75
2023-04-01T09:22:38.654Z,11.80
2023-04-01T09:23:38.654Z,11.81
2023-04-01T09:24:38.629Z,11.97
2023-04-01T09:25:38.623Z,11.99
2023-04-01T09:26:38.629Z,11.99
2023-04-01T09:27:38.606Z,12.00
2023-04-01T09:28:38.635Z,12.06
2023-04-01T09:29:38.577Z,12.03
2023-04-01T09:30:38.565Z,12.07
2023-04-01T09:31:38.625Z,12.04
2023-04-01T09:32:38.590Z,12.15
2023-04-01T09:33:38.542Z,12.22
2023-04-01T09:34:38.526Z,12.09
2023-04-01T09:35:38.555Z,12.09
2023-04-01T09:36:38.499Z,12.07
2023-04-01T09:37:38.500Z,12.06
2023-04-01T09:38:38.475Z,12.02
2023-04-01T09:39:38.625Z,11.94
2023-04-01T09:40:38.470Z,11.94
2023-04-01T09:41:38.457Z,11.84
2023-04-01T09:42:38.460Z,11.91
2023-04-01T09:43:38.421Z,11.86
2023-04-01T09:44:38.409Z,11.87
2023-04-01T09:45:38.399Z,11.86
2023-04-01T09:46:38.449Z,11.87
2023-04-01T09:47:38.416Z,11.99
2023-04-01T09:48:38.364Z,12.00
2023-04-01T09:49:38.352Z,11.94
2023-04-01T09:50:38.341Z,12.06
2023-04-01T09:51:38.356Z,12.09
2023-04-01T09:52:38.323Z,12.12
2023-04-01T09:53:38.313Z,12.10
2023-04-01T09:54:38.294Z,12.07
2023-04-01T09:55:38.303Z,12.07
2023-04-01T09:56:38.274Z,12.07
2023-04-01T09:57:38.275Z,12.07
2023-04-01T09:58:44.024Z,12.10
2023-04-01T09:59:38.240Z,12.07
2023-04-01T10:00:38.221Z,12.21
2023-04-01T10:01:38.298Z,12.12
2023-04-01T10:02:38.207Z,12.25
2023-04-01T10:03:38.204Z,12.18
2023-04-01T10:04:38.181Z,12.20
2023-04-01T10:05:38.190Z,12.25
2023-04-01T10:06:38.158Z,12.39
2023-04-01T10:07:38.167Z,12.31
2023-04-01T10:08:38.145Z,12.18
2023-04-01T10:09:38.123Z,12.21
2023-04-01T10:10:38.113Z,12.17
2023-04-01T10:11:38.100Z,12.15
2023-04-01T10:12:38.095Z,12.18
2023-04-01T10:13:38.070Z,12.20
2023-04-01T10:14:38.064Z,12.15
2023-04-01T10:15:38.093Z,12.21
2023-04-01T10:16:38.150Z,12.06
2023-04-01T10:17:38.077Z,11.99
2023-04-01T10:18:38.016Z,11.97
2023-04-01T10:19:38.023Z,12.02
2023-04-01T10:20:37.993Z,12.00
2023-04-01T10:21:37.987Z,12.12
2023-04-01T10:22:37.977Z,12.09
2023-04-01T10:23:37.981Z,12.13
2023-04-01T10:24:37.956Z,12.10
2023-04-01T10:25:37.937Z,11.99
2023-04-01T10:26:37.937Z,12.06
2023-04-01T10:27:37.945Z,12.07
2023-04-01T10:28:37.907Z,12.12
2023-04-01T10:29:37.913Z,12.21
2023-04-01T10:30:37.892Z,12.20
2023-04-01T10:31:37.953Z,12.22
2023-04-01T10:32:37.911Z,12.25
2023-04-01T10:33:37.851Z,12.32
2023-04-01T10:34:37.845Z,12.32
2023-04-01T10:35:37.901Z,12.29
2023-04-01T10:36:37.824Z,12.31
2023-04-01T10:37:37.811Z,12.40
2023-04-01T10:38:37.793Z,12.43
2023-04-01T10:39:37.803Z,12.45
2023-04-01T10:40:37.761Z,12.53
2023-04-01T10:41:37.771Z,12.46
2023-04-01T10:42:37.750Z,12.46
2023-04-01T10:43:37.742Z,12.40
2023-04-01T10:44:37.717Z,12.32
2023-04-01T10:45:37.771Z,12.27
2023-04-01T10:46:38.012Z,12.22
2023-04-01T10:47:37.746Z,12.22
2023-04-01T10:48:38.385Z,12.21
2023-04-01T10:49:37.673Z,12.35
2023-04-01T10:50:37.649Z,12.45
2023-04-01T10:51:37.641Z,12.49
2023-04-01T10:52:37.631Z,12.55
2023-04-01T10:53:37.621Z,12.61
2023-04-01T10:54:37.609Z,12.57
2023-04-01T10:55:37.624Z,12.58
2023-04-01T10:56:37.602Z,12.64
2023-04-01T10:57:37.622Z,12.60
2023-04-01T10:58:37.576Z,12.55
2023-04-01T10:59:37.559Z,12.65
2023-04-01T11:00:37.544Z,12.70
2023-04-01T11:01:37.583Z,12.62
2023-04-01T11:02:37.552Z,12.72
2023-04-01T11:03:37.583Z,12.70
2023-04-01T11:04:37.508Z,12.79
2023-04-01T11:05:37.492Z,12.76
2023-04-01T11:06:37.495Z,12.91
2023-04-01T11:07:37.458Z,12.90
2023-04-01T11:08:37.467Z,12.87
2023-04-01T11:09:37.448Z,12.87
2023-04-01T11:10:37.433Z,12.83
2023-04-01T11:11:37.434Z,12.76
2023-04-01T11:12:37.414Z,12.83
2023-04-01T11:13:37.396Z,12.93
2023-04-01T11:14:37.402Z,12.94
2023-04-01T11:15:37.406Z,12.87
2023-04-01T11:16:37.463Z,13.01
2023-04-01T11:17:37.386Z,13.03
2023-04-01T11:18:37.339Z,13.01
2023-04-01T11:19:37.325Z,13.01
2023-04-01T11:20:37.322Z,13.03
2023-04-01T11:21:37.300Z,13.01
2023-04-01T11:22:37.298Z,13.00
2023-04-01T11:23:37.275Z,13.05
2023-04-01T11:24:37.278Z,13.12
2023-04-01T11:25:37.280Z,13.20
2023-04-01T11:26:37.268Z,13.16
2023-04-01T11:27:39.449Z,13.18
2023-04-01T11:28:37.229Z,13.25
2023-04-01T11:29:38.942Z,13.16
2023-04-01T11:30:37.194Z,13.15
2023-04-01T11:31:37.204Z,13.25
2023-04-01T11:32:37.249Z,13.13
2023-04-01T11:33:37.166Z,13.13
2023-04-01T11:34:37.157Z,13.12
2023-04-01T11:35:37.152Z,13.15
2023-04-01T11:36:37.219Z,13.11
2023-04-01T11:37:37.130Z,13.28
2023-04-01T11:38:37.118Z,13.22
2023-04-01T11:39:37.111Z,13.19
2023-04-01T11:40:37.079Z,13.30
2023-04-01T11:41:37.078Z,13.28
2023-04-01T11:42:37.059Z,13.38
2023-04-01T11:43:37.069Z,13.30
2023-04-01T11:44:37.073Z,13.31
2023-04-01T11:45:37.034Z,13.37
2023-04-01T11:46:37.111Z,13.27
2023-04-01T11:47:37.043Z,13.16
2023-04-01T11:48:37.000Z,13.27
2023-04-01T11:49:37.008Z,13.30
2023-04-01T11:50:36.968Z,13.22
2023-04-01T11:51:36.969Z,13.20
2023-04-01T11:52:44.057Z,13.23
2023-04-01T11:53:36.939Z,13.11
2023-04-01T11:54:36.929Z,13.18
2023-04-01T11:55:36.927Z,13.18
2023-04-01T11:56:36.936Z,13.30
2023-04-01T11:57:36.893Z,13.18
2023-04-01T11:58:36.877Z,13.20
2023-04-01T11:59:36.892Z,13.37
2023-04-01T12:00:36.862Z,13.46
2023-04-01T12:01:36.852Z,13.47
2023-04-01T12:02:36.903Z,13.42
2023-04-01T12:03:37.142Z,13.39
2023-04-01T12:04:36.873Z,13.39
2023-04-01T12:05:36.820Z,13.28
2023-04-01T12:06:36.786Z,13.16
2023-04-01T12:07:36.779Z,13.23
2023-04-01T12:08:36.788Z,13.18
2023-04-01T12:09:36.761Z,13.18
2023-04-01T12:10:36.746Z,13.15
2023-04-01T12:11:36.763Z,13.13
2023-04-01T12:12:36.718Z,13.05
2023-04-01T12:13:36.708Z,13.12
2023-04-01T12:14:36.701Z,12.97
2023-04-01T12:15:36.734Z,12.98
2023-04-01T12:16:36.700Z,12.97
2023-04-01T12:17:36.710Z,13.00
2023-04-01T12:18:36.652Z,13.00
2023-04-01T12:19:36.652Z,12.87
2023-04-01T12:20:36.640Z,12.82
2023-04-01T12:21:36.630Z,12.64
2023-04-01T12:22:36.601Z,12.67
2023-04-01T12:23:36.594Z,12.64
2023-04-01T12:24:36.591Z,12.58
2023-04-01T12:25:36.588Z,12.58
2023-04-01T12:26:36.569Z,12.61
2023-04-01T12:27:36.561Z,12.64
2023-04-01T12:28:36.544Z,12.57
2023-04-01T12:29:36.527Z,12.60
2023-04-01T12:30:36.535Z,12.60
2023-04-01T12:31:36.547Z,12.65
2023-04-01T12:32:36.531Z,12.68
2023-04-01T12:33:38.010Z,12.65
2023-04-01T12:34:36.494Z,12.64
2023-04-01T12:35:36.650Z,12.65
2023-04-01T12:36:36.456Z,12.45
2023-04-01T12:37:36.446Z,12.46
2023-04-01T12:38:36.423Z,12.45
2023-04-01T12:39:36.414Z,12.50
2023-04-01T12:40:36.402Z,12.54
2023-04-01T12:41:36.396Z,12.49
2023-04-01T12:42:36.385Z,12.47
2023-04-01T12:43:36.364Z,12.57
2023-04-01T12:44:36.401Z,12.60
2023-04-01T12:45:36.621Z,12.61
2023-04-01T12:46:36.359Z,12.60
2023-04-01T12:47:36.375Z,12.64
2023-04-01T12:48:36.312Z,12.57
2023-04-01T12:49:36.301Z,12.45
2023-04-01T12:50:36.305Z,12.45
2023-04-01T12:51:36.282Z,12.40
2023-04-01T12:52:36.266Z,12.43